METAR AND TAF INFORMATION
METAR FOR FAEL
ADDS - METARS form results

(0751 UTC 25 August 2019)
Data provider http://aviationweather.gov/metar/data/
 
METAR text: FAEL 250717Z 33005KT 290V010 CAVOK 27/02 Q1017
Conditions at: FAEL (EAST LONDON/SCHO, ZA) observed 0717 UTC 25 August 2019
Temperature: 27.0°C (81°F)
Dewpoint: 2.0°C (36°F) [RH = 20%]
Pressure (altimeter): 30.03 inches Hg (1017.0 mb)
Winds: from the NNW (330 degrees) at 6 MPH (5 knots; 2.6 m/s)
Visibility: 6 or more miles (10+ km)
Ceiling: ceiling and visibility are OK
Clouds: unknown
Weather: no significant weather observed at this time

METAR text: FAEL 250700Z 34004KT 300V010 CAVOK 25/02 Q1017
Conditions at: FAEL (EAST LONDON/SCHO, ZA) observed 0700 UTC 25 August 2019
Temperature: 25.0°C (77°F)
Dewpoint: 2.0°C (36°F) [RH = 22%]
Pressure (altimeter): 30.03 inches Hg (1017.0 mb)
Winds: from the NNW (340 degrees) at 5 MPH (4 knots; 2.1 m/s)
Visibility: 6 or more miles (10+ km)
Ceiling: ceiling and visibility are OK
Clouds: unknown
Weather: no significant weather observed at this time

Forecast for: FAEL (EAST LONDON/SCHO, ZA)
Text: TAF FAEL 250600Z 2507/2518 29008KT CAVOK TX24/2512Z TN19/2518Z
Forecast period: 0700 to 0800 UTC 25 August 2019
Forecast type: FROM: standard forecast or significant change
Winds: from the WNW (290 degrees) at 9 MPH (8 knots; 4.1 m/s)
Visibility: 6 or more miles 10+ km)
Ceiling: unknown
Clouds: missing
Weather: no significant weather forecast for this period
Text: BECMG 2508/2510 22011KT
Forecast period: 0800 to 1800 UTC 25 August 2019
Forecast type: BECOMING: Conditions expected to become as follows by 1000 UTC 25 August 2019
Winds: from the SW (220 degrees) at 13 MPH (11 knots; 5.7 m/s)
Visibility: 6 or more miles 10+ km)
Ceiling: unknown
Clouds: missing
Weather: no significant weather forecast for this period

 AIRPORT MAP

 RUNWAY INFORMATION
Runway 06 Runway length 5200 ft Runway width 150 ft
Runway elevation 394 ft Runway displaced threshold 0 ft Runway heading 37
Runway 24 Runway length 5200 ft Runway width 150 ft
Runway elevation 407 ft Runway displaced threshold 0 ft Runway heading 217
Runway 11 Runway length 6362 ft Runway width 150 ft
Runway elevation 435 ft Runway displaced threshold 0 ft Runway heading 82
Runway 29 Runway length 6362 ft Runway width 150 ft
Runway elevation 387 ft Runway displaced threshold 0 ft Runway heading 262

 AIRPORT FREQUENCIES
Type APP Name APP Frequency 120.1 MHZ
Type ATIS Name ATIS Frequency 126.45 MHZ
Type GTE Name APRON Frequency 122.65 MHZ
Type TWR Name TWR Frequency 118.3 MHZ

 AIRPORT NEAR NAVIGATION AIDS
Type VORTAC Name East London Frequency 114500 KHZ



The South Africal Virtual Air Force